sensor_id;sensor_type;location;lat;lon;timestamp;P1;durP1;ratioP1;P2;durP2;ratioP2
14760;SDS011;7472;45.396;5.272;2023-08-07T00:01:45;3.10;;;1.20;;
14760;SDS011;7472;45.396;5.272;2023-08-07T00:04:13;2.03;;;1.40;;
14760;SDS011;7472;45.396;5.272;2023-08-07T00:06:40;2.33;;;1.48;;
14760;SDS011;7472;45.396;5.272;2023-08-07T00:09:08;2.40;;;1.35;;
14760;SDS011;7472;45.396;5.272;2023-08-07T00:11:35;3.10;;;1.30;;
14760;SDS011;7472;45.396;5.272;2023-08-07T00:14:04;1.77;;;1.25;;
14760;SDS011;7472;45.396;5.272;2023-08-07T00:16:31;4.18;;;1.30;;
14760;SDS011;7472;45.396;5.272;2023-08-07T00:18:58;2.10;;;1.27;;
14760;SDS011;7472;45.396;5.272;2023-08-07T00:21:26;3.15;;;1.55;;
14760;SDS011;7472;45.396;5.272;2023-08-07T00:23:53;3.72;;;1.40;;
14760;SDS011;7472;45.396;5.272;2023-08-07T00:26:21;2.30;;;1.20;;
14760;SDS011;7472;45.396;5.272;2023-08-07T00:28:48;4.25;;;1.70;;
14760;SDS011;7472;45.396;5.272;2023-08-07T00:31:17;2.05;;;1.40;;
14760;SDS011;7472;45.396;5.272;2023-08-07T00:33:44;3.33;;;1.30;;
14760;SDS011;7472;45.396;5.272;2023-08-07T00:36:12;3.05;;;1.40;;
14760;SDS011;7472;45.396;5.272;2023-08-07T00:38:39;2.17;;;1.38;;
14760;SDS011;7472;45.396;5.272;2023-08-07T00:41:07;4.28;;;1.40;;
14760;SDS011;7472;45.396;5.272;2023-08-07T00:43:35;1.50;;;1.05;;
14760;SDS011;7472;45.396;5.272;2023-08-07T00:46:02;2.50;;;1.42;;
14760;SDS011;7472;45.396;5.272;2023-08-07T00:48:31;2.13;;;1.23;;
14760;SDS011;7472;45.396;5.272;2023-08-07T00:50:59;1.98;;;1.27;;
14760;SDS011;7472;45.396;5.272;2023-08-07T00:53:27;2.60;;;1.20;;
14760;SDS011;7472;45.396;5.272;2023-08-07T00:55:54;2.97;;;1.45;;
14760;SDS011;7472;45.396;5.272;2023-08-07T00:58:23;1.67;;;1.38;;
14760;SDS011;7472;45.396;5.272;2023-08-07T01:00:50;2.17;;;1.45;;
14760;SDS011;7472;45.396;5.272;2023-08-07T01:03:17;1.92;;;1.23;;
14760;SDS011;7472;45.396;5.272;2023-08-07T01:05:46;3.25;;;1.50;;
14760;SDS011;7472;45.396;5.272;2023-08-07T01:08:14;4.00;;;1.20;;
14760;SDS011;7472;45.396;5.272;2023-08-07T01:10:45;2.70;;;1.70;;
14760;SDS011;7472;45.396;5.272;2023-08-07T01:13:16;5.40;;;1.70;;
14760;SDS011;7472;45.396;5.272;2023-08-07T01:15:45;3.65;;;1.25;;
14760;SDS011;7472;45.396;5.272;2023-08-07T01:18:14;3.53;;;1.30;;
14760;SDS011;7472;45.396;5.272;2023-08-07T01:20:41;3.88;;;1.55;;
14760;SDS011;7472;45.396;5.272;2023-08-07T01:23:10;3.92;;;1.25;;
14760;SDS011;7472;45.396;5.272;2023-08-07T01:25:37;1.95;;;1.13;;
14760;SDS011;7472;45.396;5.272;2023-08-07T01:28:06;1.90;;;1.30;;
14760;SDS011;7472;45.396;5.272;2023-08-07T01:30:36;1.67;;;1.15;;
14760;SDS011;7472;45.396;5.272;2023-08-07T01:33:09;1.35;;;1.10;;
14760;SDS011;7472;45.396;5.272;2023-08-07T01:35:38;4.40;;;1.63;;
14760;SDS011;7472;45.396;5.272;2023-08-07T01:38:08;3.60;;;1.60;;
14760;SDS011;7472;45.396;5.272;2023-08-07T01:40:37;2.95;;;1.45;;
14760;SDS011;7472;45.396;5.272;2023-08-07T01:43:05;3.78;;;1.55;;
14760;SDS011;7472;45.396;5.272;2023-08-07T01:45:32;1.88;;;1.13;;
14760;SDS011;7472;45.396;5.272;2023-08-07T01:47:59;4.40;;;1.30;;
14760;SDS011;7472;45.396;5.272;2023-08-07T01:50:27;8.40;;;2.13;;
14760;SDS011;7472;45.396;5.272;2023-08-07T01:52:54;2.22;;;1.50;;
14760;SDS011;7472;45.396;5.272;2023-08-07T01:55:23;5.32;;;1.73;;
14760;SDS011;7472;45.396;5.272;2023-08-07T01:57:52;2.58;;;1.90;;
14760;SDS011;7472;45.396;5.272;2023-08-07T02:00:19;2.25;;;1.70;;
14760;SDS011;7472;45.396;5.272;2023-08-07T02:02:47;3.47;;;1.67;;
14760;SDS011;7472;45.396;5.272;2023-08-07T02:05:14;2.92;;;1.42;;
14760;SDS011;7472;45.396;5.272;2023-08-07T02:07:42;3.38;;;1.70;;
14760;SDS011;7472;45.396;5.272;2023-08-07T02:10:09;5.57;;;1.50;;
14760;SDS011;7472;45.396;5.272;2023-08-07T02:12:38;3.92;;;2.22;;
14760;SDS011;7472;45.396;5.272;2023-08-07T02:15:07;3.28;;;1.67;;
14760;SDS011;7472;45.396;5.272;2023-08-07T02:17:34;4.75;;;1.80;;
14760;SDS011;7472;45.396;5.272;2023-08-07T02:20:04;2.72;;;1.50;;
14760;SDS011;7472;45.396;5.272;2023-08-07T02:22:31;3.83;;;1.88;;
14760;SDS011;7472;45.396;5.272;2023-08-07T02:24:59;2.88;;;1.52;;
14760;SDS011;7472;45.396;5.272;2023-08-07T02:27:26;3.72;;;1.33;;
14760;SDS011;7472;45.396;5.272;2023-08-07T02:29:53;3.05;;;1.60;;
14760;SDS011;7472;45.396;5.272;2023-08-07T02:32:22;3.47;;;1.95;;
14760;SDS011;7472;45.396;5.272;2023-08-07T02:34:50;1.98;;;1.50;;
14760;SDS011;7472;45.396;5.272;2023-08-07T02:37:17;3.83;;;1.63;;
14760;SDS011;7472;45.396;5.272;2023-08-07T02:39:46;5.40;;;1.88;;
14760;SDS011;7472;45.396;5.272;2023-08-07T02:42:13;4.80;;;1.90;;
14760;SDS011;7472;45.396;5.272;2023-08-07T02:44:40;3.72;;;1.55;;
14760;SDS011;7472;45.396;5.272;2023-08-07T02:47:08;4.60;;;1.40;;
14760;SDS011;7472;45.396;5.272;2023-08-07T02:49:37;3.20;;;1.65;;
14760;SDS011;7472;45.396;5.272;2023-08-07T02:52:04;3.00;;;1.67;;
14760;SDS011;7472;45.396;5.272;2023-08-07T02:54:31;4.78;;;1.80;;
14760;SDS011;7472;45.396;5.272;2023-08-07T02:56:59;6.00;;;2.05;;
14760;SDS011;7472;45.396;5.272;2023-08-07T02:59:26;2.90;;;1.50;;
14760;SDS011;7472;45.396;5.272;2023-08-07T03:01:54;2.28;;;1.58;;
14760;SDS011;7472;45.396;5.272;2023-08-07T03:04:21;2.33;;;1.50;;
14760;SDS011;7472;45.396;5.272;2023-08-07T03:06:50;3.58;;;1.40;;
14760;SDS011;7472;45.396;5.272;2023-08-07T03:09:17;2.15;;;1.20;;
14760;SDS011;7472;45.396;5.272;2023-08-07T03:11:44;1.63;;;1.35;;
14760;SDS011;7472;45.396;5.272;2023-08-07T03:14:12;2.10;;;1.33;;
14760;SDS011;7472;45.396;5.272;2023-08-07T03:16:39;2.15;;;1.35;;
14760;SDS011;7472;45.396;5.272;2023-08-07T03:19:06;2.10;;;1.70;;
14760;SDS011;7472;45.396;5.272;2023-08-07T03:21:34;4.88;;;1.70;;
14760;SDS011;7472;45.396;5.272;2023-08-07T03:24:03;2.53;;;1.70;;
14760;SDS011;7472;45.396;5.272;2023-08-07T03:26:30;5.03;;;1.75;;
14760;SDS011;7472;45.396;5.272;2023-08-07T03:28:58;2.33;;;1.73;;
14760;SDS011;7472;45.396;5.272;2023-08-07T03:31:25;3.17;;;1.70;;
14760;SDS011;7472;45.396;5.272;2023-08-07T03:33:52;3.10;;;1.42;;
14760;SDS011;7472;45.396;5.272;2023-08-07T03:36:20;5.32;;;1.80;;
14760;SDS011;7472;45.396;5.272;2023-08-07T03:38:47;4.75;;;2.00;;
14760;SDS011;7472;45.396;5.272;2023-08-07T03:41:17;6.13;;;1.70;;
14760;SDS011;7472;45.396;5.272;2023-08-07T03:43:44;2.17;;;1.58;;
14760;SDS011;7472;45.396;5.272;2023-08-07T03:46:11;3.28;;;1.50;;
14760;SDS011;7472;45.396;5.272;2023-08-07T03:48:39;1.63;;;1.42;;
14760;SDS011;7472;45.396;5.272;2023-08-07T03:51:06;6.32;;;1.95;;
14760;SDS011;7472;45.396;5.272;2023-08-07T03:53:34;2.92;;;1.70;;
14760;SDS011;7472;45.396;5.272;2023-08-07T03:56:01;3.58;;;1.85;;
14760;SDS011;7472;45.396;5.272;2023-08-07T03:58:30;2.33;;;1.52;;
14760;SDS011;7472;45.396;5.272;2023-08-07T04:00:57;3.90;;;1.80;;
14760;SDS011;7472;45.396;5.272;2023-08-07T04:03:25;2.83;;;1.50;;
14760;SDS011;7472;45.396;5.272;2023-08-07T04:05:53;2.13;;;1.52;;
14760;SDS011;7472;45.396;5.272;2023-08-07T04:08:21;1.52;;;1.42;;
14760;SDS011;7472;45.396;5.272;2023-08-07T04:10:57;2.47;;;1.60;;
14760;SDS011;7472;45.396;5.272;2023-08-07T04:13:25;2.15;;;1.40;;
14760;SDS011;7472;45.396;5.272;2023-08-07T04:15:53;6.80;;;1.80;;
14760;SDS011;7472;45.396;5.272;2023-08-07T04:18:21;2.30;;;1.45;;
14760;SDS011;7472;45.396;5.272;2023-08-07T04:20:49;3.17;;;1.50;;
14760;SDS011;7472;45.396;5.272;2023-08-07T04:23:17;4.65;;;1.52;;
14760;SDS011;7472;45.396;5.272;2023-08-07T04:25:45;4.47;;;1.40;;
14760;SDS011;7472;45.396;5.272;2023-08-07T04:28:12;2.03;;;1.70;;
14760;SDS011;7472;45.396;5.272;2023-08-07T04:30:39;1.83;;;1.42;;
14760;SDS011;7472;45.396;5.272;2023-08-07T04:33:08;5.35;;;1.77;;
14760;SDS011;7472;45.396;5.272;2023-08-07T04:35:36;3.80;;;1.60;;
14760;SDS011;7472;45.396;5.272;2023-08-07T04:38:03;3.03;;;1.27;;
14760;SDS011;7472;45.396;5.272;2023-08-07T04:40:30;3.08;;;1.77;;
14760;SDS011;7472;45.396;5.272;2023-08-07T04:42:58;3.17;;;1.55;;
14760;SDS011;7472;45.396;5.272;2023-08-07T04:45:26;3.17;;;1.70;;
14760;SDS011;7472;45.396;5.272;2023-08-07T04:47:53;2.58;;;1.67;;
14760;SDS011;7472;45.396;5.272;2023-08-07T04:50:22;2.33;;;1.48;;
14760;SDS011;7472;45.396;5.272;2023-08-07T04:52:49;3.47;;;1.67;;
14760;SDS011;7472;45.396;5.272;2023-08-07T04:55:16;2.47;;;1.55;;
14760;SDS011;7472;45.396;5.272;2023-08-07T04:57:44;1.73;;;1.40;;
14760;SDS011;7472;45.396;5.272;2023-08-07T05:00:12;4.05;;;1.80;;
14760;SDS011;7472;45.396;5.272;2023-08-07T05:02:40;5.80;;;1.80;;
14760;SDS011;7472;45.396;5.272;2023-08-07T05:05:07;2.97;;;1.30;;
14760;SDS011;7472;45.396;5.272;2023-08-07T05:07:36;3.40;;;1.50;;
14760;SDS011;7472;45.396;5.272;2023-08-07T05:10:04;4.78;;;1.75;;
14760;SDS011;7472;45.396;5.272;2023-08-07T05:12:31;3.50;;;1.65;;
14760;SDS011;7472;45.396;5.272;2023-08-07T05:14:59;4.22;;;1.58;;
14760;SDS011;7472;45.396;5.272;2023-08-07T05:17:26;3.30;;;1.60;;
14760;SDS011;7472;45.396;5.272;2023-08-07T05:19:53;5.53;;;1.83;;
14760;SDS011;7472;45.396;5.272;2023-08-07T05:22:21;2.72;;;1.40;;
14760;SDS011;7472;45.396;5.272;2023-08-07T05:24:50;3.50;;;1.90;;
14760;SDS011;7472;45.396;5.272;2023-08-07T05:27:17;1.98;;;1.48;;
14760;SDS011;7472;45.396;5.272;2023-08-07T05:29:44;3.25;;;1.67;;
14760;SDS011;7472;45.396;5.272;2023-08-07T05:32:12;3.75;;;1.50;;
14760;SDS011;7472;45.396;5.272;2023-08-07T05:34:39;2.72;;;1.75;;
14760;SDS011;7472;45.396;5.272;2023-08-07T05:37:07;2.42;;;1.55;;
14760;SDS011;7472;45.396;5.272;2023-08-07T05:39:34;4.10;;;1.90;;
14760;SDS011;7472;45.396;5.272;2023-08-07T05:42:04;5.15;;;1.67;;
14760;SDS011;7472;45.396;5.272;2023-08-07T05:44:33;1.60;;;1.40;;
14760;SDS011;7472;45.396;5.272;2023-08-07T05:47:00;3.83;;;1.70;;
14760;SDS011;7472;45.396;5.272;2023-08-07T05:49:27;1.60;;;1.40;;
14760;SDS011;7472;45.396;5.272;2023-08-07T05:51:55;3.67;;;1.83;;
14760;SDS011;7472;45.396;5.272;2023-08-07T05:54:22;2.50;;;1.30;;
14760;SDS011;7472;45.396;5.272;2023-08-07T05:56:49;2.35;;;1.70;;
14760;SDS011;7472;45.396;5.272;2023-08-07T05:59:18;3.75;;;1.60;;
14760;SDS011;7472;45.396;5.272;2023-08-07T06:01:46;5.95;;;1.38;;
14760;SDS011;7472;45.396;5.272;2023-08-07T06:04:13;2.92;;;1.38;;
14760;SDS011;7472;45.396;5.272;2023-08-07T06:06:40;2.38;;;1.40;;
14760;SDS011;7472;45.396;5.272;2023-08-07T06:09:08;2.60;;;1.50;;
14760;SDS011;7472;45.396;5.272;2023-08-07T06:11:35;2.53;;;1.40;;
14760;SDS011;7472;45.396;5.272;2023-08-07T06:14:03;1.83;;;1.10;;
14760;SDS011;7472;45.396;5.272;2023-08-07T06:16:31;3.38;;;1.80;;
14760;SDS011;7472;45.396;5.272;2023-08-07T06:18:59;3.10;;;1.38;;
14760;SDS011;7472;45.396;5.272;2023-08-07T06:21:26;4.10;;;1.25;;
14760;SDS011;7472;45.396;5.272;2023-08-07T06:23:54;3.38;;;1.60;;
14760;SDS011;7472;45.396;5.272;2023-08-07T06:26:22;1.63;;;1.42;;
14760;SDS011;7472;45.396;5.272;2023-08-07T06:28:49;1.75;;;1.33;;
14760;SDS011;7472;45.396;5.272;2023-08-07T06:31:17;4.28;;;1.50;;
14760;SDS011;7472;45.396;5.272;2023-08-07T06:33:46;3.33;;;1.40;;
14760;SDS011;7472;45.396;5.272;2023-08-07T06:36:13;3.00;;;1.55;;
14760;SDS011;7472;45.396;5.272;2023-08-07T06:38:41;3.38;;;1.58;;
14760;SDS011;7472;45.396;5.272;2023-08-07T06:41:08;2.20;;;1.27;;
14760;SDS011;7472;45.396;5.272;2023-08-07T06:43:36;3.38;;;1.17;;
14760;SDS011;7472;45.396;5.272;2023-08-07T06:46:03;2.08;;;0.98;;
14760;SDS011;7472;45.396;5.272;2023-08-07T06:48:31;2.35;;;1.10;;
14760;SDS011;7472;45.396;5.272;2023-08-07T06:51:00;1.73;;;1.00;;
14760;SDS011;7472;45.396;5.272;2023-08-07T06:53:27;1.60;;;1.17;;
14760;SDS011;7472;45.396;5.272;2023-08-07T06:55:55;4.53;;;1.00;;
14760;SDS011;7472;45.396;5.272;2023-08-07T06:58:22;1.35;;;1.25;;
14760;SDS011;7472;45.396;5.272;2023-08-07T07:00:50;2.05;;;1.15;;
14760;SDS011;7472;45.396;5.272;2023-08-07T07:03:17;3.08;;;1.33;;
14760;SDS011;7472;45.396;5.272;2023-08-07T07:05:44;2.45;;;1.35;;
14760;SDS011;7472;45.396;5.272;2023-08-07T07:08:13;5.63;;;1.58;;
14760;SDS011;7472;45.396;5.272;2023-08-07T07:10:41;1.50;;;1.25;;
14760;SDS011;7472;45.396;5.272;2023-08-07T07:13:08;2.33;;;1.33;;
14760;SDS011;7472;45.396;5.272;2023-08-07T07:15:36;2.70;;;1.58;;
14760;SDS011;7472;45.396;5.272;2023-08-07T07:18:03;1.73;;;1.20;;
14760;SDS011;7472;45.396;5.272;2023-08-07T07:20:30;2.90;;;1.05;;
14760;SDS011;7472;45.396;5.272;2023-08-07T07:22:58;2.10;;;1.20;;
14760;SDS011;7472;45.396;5.272;2023-08-07T07:25:27;2.55;;;1.38;;
14760;SDS011;7472;45.396;5.272;2023-08-07T07:27:54;1.70;;;1.38;;
14760;SDS011;7472;45.396;5.272;2023-08-07T07:30:21;2.53;;;1.42;;
14760;SDS011;7472;45.396;5.272;2023-08-07T07:32:49;2.05;;;1.50;;
14760;SDS011;7472;45.396;5.272;2023-08-07T07:35:17;1.73;;;1.10;;
14760;SDS011;7472;45.396;5.272;2023-08-07T07:37:44;2.53;;;1.30;;
14760;SDS011;7472;45.396;5.272;2023-08-07T07:40:12;2.90;;;1.30;;
14760;SDS011;7472;45.396;5.272;2023-08-07T07:42:41;2.13;;;1.00;;
14760;SDS011;7472;45.396;5.272;2023-08-07T07:45:08;2.63;;;1.25;;
14760;SDS011;7472;45.396;5.272;2023-08-07T07:47:36;3.28;;;1.00;;
14760;SDS011;7472;45.396;5.272;2023-08-07T07:50:06;3.05;;;1.42;;
14760;SDS011;7472;45.396;5.272;2023-08-07T07:52:34;2.38;;;1.58;;
14760;SDS011;7472;45.396;5.272;2023-08-07T07:55:02;1.50;;;1.20;;
14760;SDS011;7472;45.396;5.272;2023-08-07T07:57:30;3.70;;;1.10;;
14760;SDS011;7472;45.396;5.272;2023-08-07T07:59:59;3.67;;;1.70;;
14760;SDS011;7472;45.396;5.272;2023-08-07T08:02:27;1.45;;;1.05;;
14760;SDS011;7472;45.396;5.272;2023-08-07T08:04:55;3.17;;;1.15;;
14760;SDS011;7472;45.396;5.272;2023-08-07T08:07:23;2.25;;;1.23;;
14760;SDS011;7472;45.396;5.272;2023-08-07T08:09:50;1.75;;;1.13;;
14760;SDS011;7472;45.396;5.272;2023-08-07T08:12:18;1.05;;;0.95;;
14760;SDS011;7472;45.396;5.272;2023-08-07T08:14:45;1.98;;;0.95;;
14760;SDS011;7472;45.396;5.272;2023-08-07T08:17:14;2.88;;;1.45;;
14760;SDS011;7472;45.396;5.272;2023-08-07T08:19:41;2.15;;;1.10;;
14760;SDS011;7472;45.396;5.272;2023-08-07T08:22:09;1.50;;;1.33;;
14760;SDS011;7472;45.396;5.272;2023-08-07T08:24:36;3.08;;;1.20;;
14760;SDS011;7472;45.396;5.272;2023-08-07T08:27:04;2.85;;;1.27;;
14760;SDS011;7472;45.396;5.272;2023-08-07T08:29:31;3.85;;;1.27;;
14760;SDS011;7472;45.396;5.272;2023-08-07T08:31:59;3.88;;;1.30;;
14760;SDS011;7472;45.396;5.272;2023-08-07T08:34:28;4.65;;;1.30;;
14760;SDS011;7472;45.396;5.272;2023-08-07T08:36:55;1.65;;;0.88;;
14760;SDS011;7472;45.396;5.272;2023-08-07T08:39:22;1.75;;;1.15;;
14760;SDS011;7472;45.396;5.272;2023-08-07T08:41:50;1.52;;;0.82;;
14760;SDS011;7472;45.396;5.272;2023-08-07T08:44:17;1.15;;;1.00;;
14760;SDS011;7472;45.396;5.272;2023-08-07T08:46:46;1.58;;;0.90;;
14760;SDS011;7472;45.396;5.272;2023-08-07T08:49:19;1.73;;;1.25;;
14760;SDS011;7472;45.396;5.272;2023-08-07T08:51:51;1.45;;;1.02;;
14760;SDS011;7472;45.396;5.272;2023-08-07T08:54:18;1.92;;;1.10;;
14760;SDS011;7472;45.396;5.272;2023-08-07T08:56:46;1.52;;;0.60;;
14760;SDS011;7472;45.396;5.272;2023-08-07T08:59:14;2.15;;;0.93;;
14760;SDS011;7472;45.396;5.272;2023-08-07T09:01:43;2.13;;;0.95;;
14760;SDS011;7472;45.396;5.272;2023-08-07T09:04:11;2.45;;;0.77;;
14760;SDS011;7472;45.396;5.272;2023-08-07T09:06:38;2.65;;;1.10;;
14760;SDS011;7472;45.396;5.272;2023-08-07T09:09:07;2.95;;;0.70;;
14760;SDS011;7472;45.396;5.272;2023-08-07T09:11:35;1.08;;;0.80;;
14760;SDS011;7472;45.396;5.272;2023-08-07T09:14:03;2.90;;;1.00;;
14760;SDS011;7472;45.396;5.272;2023-08-07T09:16:31;1.63;;;0.80;;
14760;SDS011;7472;45.396;5.272;2023-08-07T09:18:58;1.23;;;0.80;;
14760;SDS011;7472;45.396;5.272;2023-08-07T09:21:26;2.40;;;0.80;;
14760;SDS011;7472;45.396;5.272;2023-08-07T09:23:53;3.70;;;0.80;;
14760;SDS011;7472;45.396;5.272;2023-08-07T09:26:22;1.38;;;0.80;;
14760;SDS011;7472;45.396;5.272;2023-08-07T09:28:51;0.90;;;0.60;;
14760;SDS011;7472;45.396;5.272;2023-08-07T09:31:19;1.83;;;0.90;;
14760;SDS011;7472;45.396;5.272;2023-08-07T09:33:47;1.02;;;0.70;;
14760;SDS011;7472;45.396;5.272;2023-08-07T09:36:15;3.70;;;0.80;;
14760;SDS011;7472;45.396;5.272;2023-08-07T09:38:43;1.30;;;0.68;;
14760;SDS011;7472;45.396;5.272;2023-08-07T09:41:11;2.65;;;0.65;;
14760;SDS011;7472;45.396;5.272;2023-08-07T09:43:39;4.25;;;0.85;;
14760;SDS011;7472;45.396;5.272;2023-08-07T09:46:07;2.35;;;0.80;;
14760;SDS011;7472;45.396;5.272;2023-08-07T09:48:38;0.68;;;0.68;;
14760;SDS011;7472;45.396;5.272;2023-08-07T09:51:06;1.08;;;0.70;;
14760;SDS011;7472;45.396;5.272;2023-08-07T09:53:33;1.23;;;0.70;;
14760;SDS011;7472;45.396;5.272;2023-08-07T09:56:01;1.80;;;0.57;;
14760;SDS011;7472;45.396;5.272;2023-08-07T09:58:29;1.73;;;0.75;;
14760;SDS011;7472;45.396;5.272;2023-08-07T10:01:00;1.33;;;0.55;;
14760;SDS011;7472;45.396;5.272;2023-08-07T10:03:27;1.33;;;0.55;;
14760;SDS011;7472;45.396;5.272;2023-08-07T10:05:55;1.05;;;0.65;;
14760;SDS011;7472;45.396;5.272;2023-08-07T10:08:22;2.05;;;0.70;;
14760;SDS011;7472;45.396;5.272;2023-08-07T10:10:51;2.08;;;0.43;;
14760;SDS011;7472;45.396;5.272;2023-08-07T10:13:18;1.10;;;0.80;;
14760;SDS011;7472;45.396;5.272;2023-08-07T10:15:46;2.60;;;1.10;;
14760;SDS011;7472;45.396;5.272;2023-08-07T10:18:16;1.75;;;0.45;;
14760;SDS011;7472;45.396;5.272;2023-08-07T10:20:43;2.42;;;0.70;;
14760;SDS011;7472;45.396;5.272;2023-08-07T10:23:11;1.48;;;0.88;;
14760;SDS011;7472;45.396;5.272;2023-08-07T10:25:40;0.80;;;0.52;;
14760;SDS011;7472;45.396;5.272;2023-08-07T10:28:08;4.28;;;0.70;;
14760;SDS011;7472;45.396;5.272;2023-08-07T10:30:37;9.98;;;1.67;;
14760;SDS011;7472;45.396;5.272;2023-08-07T10:33:05;3.33;;;0.93;;
14760;SDS011;7472;45.396;5.272;2023-08-07T10:35:34;1.27;;;0.50;;
14760;SDS011;7472;45.396;5.272;2023-08-07T10:38:05;2.30;;;0.70;;
14760;SDS011;7472;45.396;5.272;2023-08-07T10:40:33;3.22;;;0.60;;
14760;SDS011;7472;45.396;5.272;2023-08-07T10:43:11;0.35;;;0.30;;
14760;SDS011;7472;45.396;5.272;2023-08-07T10:45:39;1.00;;;0.60;;
14760;SDS011;7472;45.396;5.272;2023-08-07T10:48:06;1.30;;;0.70;;
14760;SDS011;7472;45.396;5.272;2023-08-07T10:50:45;1.95;;;0.50;;
14760;SDS011;7472;45.396;5.272;2023-08-07T10:53:18;1.05;;;0.40;;
14760;SDS011;7472;45.396;5.272;2023-08-07T10:55:46;1.65;;;0.60;;
14760;SDS011;7472;45.396;5.272;2023-08-07T10:58:23;1.67;;;0.60;;
14760;SDS011;7472;45.396;5.272;2023-08-07T11:00:51;1.95;;;0.70;;
14760;SDS011;7472;45.396;5.272;2023-08-07T11:06:05;2.67;;;0.80;;
14760;SDS011;7472;45.396;5.272;2023-08-07T11:08:32;1.60;;;0.50;;
14760;SDS011;7472;45.396;5.272;2023-08-07T11:11:03;1.85;;;0.70;;
14760;SDS011;7472;45.396;5.272;2023-08-07T11:13:31;0.60;;;0.52;;
14760;SDS011;7472;45.396;5.272;2023-08-07T11:15:58;0.85;;;0.50;;
14760;SDS011;7472;45.396;5.272;2023-08-07T11:18:26;1.92;;;0.70;;
14760;SDS011;7472;45.396;5.272;2023-08-07T11:20:54;0.55;;;0.55;;
14760;SDS011;7472;45.396;5.272;2023-08-07T11:23:26;0.98;;;0.60;;
14760;SDS011;7472;45.396;5.272;2023-08-07T11:25:54;1.10;;;0.70;;
14760;SDS011;7472;45.396;5.272;2023-08-07T11:28:21;0.90;;;0.60;;
14760;SDS011;7472;45.396;5.272;2023-08-07T11:30:49;3.78;;;0.57;;
14760;SDS011;7472;45.396;5.272;2023-08-07T11:33:17;1.70;;;0.60;;
14760;SDS011;7472;45.396;5.272;2023-08-07T11:35:45;1.20;;;0.52;;
14760;SDS011;7472;45.396;5.272;2023-08-07T11:38:12;1.73;;;1.00;;
14760;SDS011;7472;45.396;5.272;2023-08-07T11:40:41;0.80;;;0.80;;
14760;SDS011;7472;45.396;5.272;2023-08-07T11:43:08;1.48;;;0.68;;
14760;SDS011;7472;45.396;5.272;2023-08-07T11:45:36;0.95;;;0.70;;
14760;SDS011;7472;45.396;5.272;2023-08-07T11:48:03;0.60;;;0.60;;
14760;SDS011;7472;45.396;5.272;2023-08-07T11:50:31;1.52;;;0.90;;
14760;SDS011;7472;45.396;5.272;2023-08-07T11:52:58;1.52;;;1.08;;
14760;SDS011;7472;45.396;5.272;2023-08-07T11:55:28;0.43;;;0.43;;
14760;SDS011;7472;45.396;5.272;2023-08-07T11:57:57;1.17;;;0.60;;
14760;SDS011;7472;45.396;5.272;2023-08-07T12:00:25;0.63;;;0.55;;
14760;SDS011;7472;45.396;5.272;2023-08-07T12:02:53;0.52;;;0.50;;
14760;SDS011;7472;45.396;5.272;2023-08-07T12:05:20;1.23;;;0.60;;
14760;SDS011;7472;45.396;5.272;2023-08-07T12:07:48;0.77;;;0.55;;
14760;SDS011;7472;45.396;5.272;2023-08-07T12:10:17;1.38;;;0.60;;
14760;SDS011;7472;45.396;5.272;2023-08-07T12:12:44;0.90;;;0.50;;
14760;SDS011;7472;45.396;5.272;2023-08-07T12:15:13;0.82;;;0.60;;
14760;SDS011;7472;45.396;5.272;2023-08-07T12:17:43;2.05;;;0.70;;
14760;SDS011;7472;45.396;5.272;2023-08-07T12:20:10;2.20;;;0.60;;
14760;SDS011;7472;45.396;5.272;2023-08-07T12:22:38;0.77;;;0.57;;
14760;SDS011;7472;45.396;5.272;2023-08-07T12:25:05;0.75;;;0.50;;
14760;SDS011;7472;45.396;5.272;2023-08-07T12:27:33;0.70;;;0.50;;
14760;SDS011;7472;45.396;5.272;2023-08-07T12:30:00;1.15;;;0.70;;
14760;SDS011;7472;45.396;5.272;2023-08-07T12:32:29;0.47;;;0.40;;
14760;SDS011;7472;45.396;5.272;2023-08-07T12:34:56;3.08;;;0.93;;
14760;SDS011;7472;45.396;5.272;2023-08-07T12:37:24;0.82;;;0.65;;
14760;SDS011;7472;45.396;5.272;2023-08-07T12:39:51;0.65;;;0.65;;
14760;SDS011;7472;45.396;5.272;2023-08-07T12:42:18;1.27;;;0.70;;
14760;SDS011;7472;45.396;5.272;2023-08-07T12:44:46;1.92;;;0.60;;
14760;SDS011;7472;45.396;5.272;2023-08-07T12:47:13;0.77;;;0.60;;
14760;SDS011;7472;45.396;5.272;2023-08-07T12:49:42;0.80;;;0.50;;
14760;SDS011;7472;45.396;5.272;2023-08-07T12:52:12;1.33;;;0.80;;
14760;SDS011;7472;45.396;5.272;2023-08-07T12:54:40;0.93;;;0.50;;
14760;SDS011;7472;45.396;5.272;2023-08-07T12:57:07;1.77;;;0.82;;
14760;SDS011;7472;45.396;5.272;2023-08-07T12:59:34;0.93;;;0.50;;
14760;SDS011;7472;45.396;5.272;2023-08-07T13:02:02;0.57;;;0.50;;
14760;SDS011;7472;45.396;5.272;2023-08-07T13:04:29;0.70;;;0.50;;
14760;SDS011;7472;45.396;5.272;2023-08-07T13:06:59;1.08;;;0.68;;
14760;SDS011;7472;45.396;5.272;2023-08-07T13:09:27;0.70;;;0.32;;
14760;SDS011;7472;45.396;5.272;2023-08-07T13:11:56;0.73;;;0.50;;
14760;SDS011;7472;45.396;5.272;2023-08-07T13:14:23;1.17;;;0.50;;
14760;SDS011;7472;45.396;5.272;2023-08-07T13:16:50;1.30;;;0.60;;
14760;SDS011;7472;45.396;5.272;2023-08-07T13:19:18;0.63;;;0.40;;
14760;SDS011;7472;45.396;5.272;2023-08-07T13:21:45;1.70;;;0.50;;
14760;SDS011;7472;45.396;5.272;2023-08-07T13:24:15;0.82;;;0.40;;
14760;SDS011;7472;45.396;5.272;2023-08-07T13:26:42;0.60;;;0.60;;
14760;SDS011;7472;45.396;5.272;2023-08-07T13:29:10;1.50;;;0.68;;
14760;SDS011;7472;45.396;5.272;2023-08-07T13:31:38;0.60;;;0.60;;
14760;SDS011;7472;45.396;5.272;2023-08-07T13:34:06;1.17;;;0.60;;
14760;SDS011;7472;45.396;5.272;2023-08-07T13:36:36;1.02;;;0.50;;
14760;SDS011;7472;45.396;5.272;2023-08-07T13:39:03;1.20;;;0.77;;
14760;SDS011;7472;45.396;5.272;2023-08-07T13:41:32;1.15;;;0.68;;
14760;SDS011;7472;45.396;5.272;2023-08-07T13:44:00;1.70;;;0.57;;
14760;SDS011;7472;45.396;5.272;2023-08-07T13:46:27;2.83;;;0.60;;
14760;SDS011;7472;45.396;5.272;2023-08-07T13:48:55;0.73;;;0.68;;
14760;SDS011;7472;45.396;5.272;2023-08-07T13:51:22;1.00;;;0.57;;
14760;SDS011;7472;45.396;5.272;2023-08-07T13:53:50;0.88;;;0.57;;
14760;SDS011;7472;45.396;5.272;2023-08-07T13:56:18;1.23;;;0.68;;
14760;SDS011;7472;45.396;5.272;2023-08-07T13:58:47;1.27;;;0.63;;
14760;SDS011;7472;45.396;5.272;2023-08-07T14:01:14;2.35;;;0.80;;
14760;SDS011;7472;45.396;5.272;2023-08-07T14:03:42;0.90;;;0.55;;
14760;SDS011;7472;45.396;5.272;2023-08-07T14:06:09;1.58;;;0.73;;
14760;SDS011;7472;45.396;5.272;2023-08-07T14:08:37;2.40;;;0.70;;
14760;SDS011;7472;45.396;5.272;2023-08-07T14:11:04;0.40;;;0.40;;
14760;SDS011;7472;45.396;5.272;2023-08-07T14:13:31;0.60;;;0.60;;
14760;SDS011;7472;45.396;5.272;2023-08-07T14:16:00;1.10;;;0.80;;
14760;SDS011;7472;45.396;5.272;2023-08-07T14:18:28;1.02;;;0.70;;
14760;SDS011;7472;45.396;5.272;2023-08-07T14:20:55;2.50;;;0.43;;
14760;SDS011;7472;45.396;5.272;2023-08-07T14:23:22;1.30;;;0.77;;
14760;SDS011;7472;45.396;5.272;2023-08-07T14:25:50;0.52;;;0.45;;
14760;SDS011;7472;45.396;5.272;2023-08-07T14:28:18;2.38;;;0.60;;
14760;SDS011;7472;45.396;5.272;2023-08-07T14:30:45;0.47;;;0.45;;
14760;SDS011;7472;45.396;5.272;2023-08-07T14:33:14;1.33;;;0.52;;
14760;SDS011;7472;45.396;5.272;2023-08-07T14:35:42;0.73;;;0.63;;
14760;SDS011;7472;45.396;5.272;2023-08-07T14:38:09;1.10;;;0.65;;
14760;SDS011;7472;45.396;5.272;2023-08-07T14:40:36;0.77;;;0.47;;
14760;SDS011;7472;45.396;5.272;2023-08-07T14:43:06;1.13;;;0.70;;
14760;SDS011;7472;45.396;5.272;2023-08-07T14:45:33;1.67;;;0.50;;
14760;SDS011;7472;45.396;5.272;2023-08-07T14:48:02;0.95;;;0.30;;
14760;SDS011;7472;45.396;5.272;2023-08-07T14:50:31;2.05;;;0.40;;
14760;SDS011;7472;45.396;5.272;2023-08-07T14:52:59;0.70;;;0.50;;
14760;SDS011;7472;45.396;5.272;2023-08-07T14:55:26;2.38;;;0.60;;
14760;SDS011;7472;45.396;5.272;2023-08-07T14:57:53;0.60;;;0.60;;
14760;SDS011;7472;45.396;5.272;2023-08-07T15:00:21;0.98;;;0.47;;
14760;SDS011;7472;45.396;5.272;2023-08-07T15:02:48;1.02;;;0.45;;
14760;SDS011;7472;45.396;5.272;2023-08-07T15:05:16;0.90;;;0.50;;
14760;SDS011;7472;45.396;5.272;2023-08-07T15:07:45;0.60;;;0.47;;